Time;durP1;ratioP1;P1;durP2;ratioP2;P2;SDS_P1;SDS_P2;PMS_P1;PMS_P2;Temp;Humidity;BMP_temperature;BMP_pressure;BME280_temperature;BME280_humidity;BME280_pressure;Samples;Min_cycle;Max_cycle;Signal;HPM_P1;HPM_P2
2022/08/19 00:00:40;;;;;;;6.65;6.05;;;;;;;;;;5051721;28;20308;-82
2022/08/19 00:03:08;;;;;;;6.68;6.07;;;;;;;;;;5052004;28;20228;-81
2022/08/19 00:05:36;;;;;;;6.15;5.65;;;;;;;;;;5051832;28;20244;-82
2022/08/19 00:08:04;;;;;;;7.10;6.32;;;;;;;;;;5051284;28;20644;-82
2022/08/19 00:10:33;;;;;;;7.10;6.13;;;;;;;;;;5051723;28;20237;-82
2022/08/19 00:13:03;;;;;;;6.28;5.70;;;;;;;;;;5051618;28;20202;-81
2022/08/19 00:15:32;;;;;;;6.63;6.03;;;;;;;;;;5051817;28;20201;-82
2022/08/19 00:17:59;;;;;;;6.35;5.85;;;;;;;;;;5050878;28;20671;-81
2022/08/19 00:20:27;;;;;;;6.22;5.70;;;;;;;;;;5051514;28;20333;-82
2022/08/19 00:22:55;;;;;;;7.45;6.75;;;;;;;;;;5051210;28;20288;-81
2022/08/19 00:25:23;;;;;;;6.95;6.35;;;;;;;;;;5051066;28;20201;-81
2022/08/19 00:27:50;;;;;;;6.10;5.55;;;;;;;;;;5051199;28;20225;-81
2022/08/19 00:30:19;;;;;;;5.85;5.35;;;;;;;;;;5054169;28;20289;-81
2022/08/19 00:32:47;;;;;;;6.60;5.90;;;;;;;;;;5055459;28;20722;-81
2022/08/19 00:35:15;;;;;;;6.47;5.88;;;;;;;;;;5054726;28;20620;-81
2022/08/19 00:37:43;;;;;;;6.47;5.60;;;;;;;;;;5055105;28;20236;-81
2022/08/19 00:40:12;;;;;;;6.80;6.13;;;;;;;;;;5055124;28;20221;-82
2022/08/19 00:42:40;;;;;;;6.63;5.93;;;;;;;;;;5055014;28;20202;-81
2022/08/19 00:45:14;;;;;;;6.53;5.82;;;;;;;;;;5055236;28;20233;-82
2022/08/19 00:47:43;;;;;;;6.47;5.97;;;;;;;;;;5054939;28;20260;-82
2022/08/19 00:50:12;;;;;;;8.48;5.55;;;;;;;;;;5054876;28;20691;-82
2022/08/19 00:52:45;;;;;;;7.13;6.53;;;;;;;;;;5055044;28;20292;-81
2022/08/19 00:55:18;;;;;;;6.93;4.90;;;;;;;;;;5055314;28;20576;-82
2022/08/19 00:57:55;;;;;;;6.38;5.85;;;;;;;;;;5054867;28;20225;-82
2022/08/19 01:00:24;;;;;;;6.07;5.45;;;;;;;;;;5054952;28;20225;-82
2022/08/19 01:02:54;;;;;;;6.57;5.97;;;;;;;;;;5054439;28;20229;-82
2022/08/19 01:05:24;;;;;;;6.53;5.63;;;;;;;;;;5054696;28;20733;-82
2022/08/19 01:07:53;;;;;;;5.55;5.05;;;;;;;;;;5054430;28;20308;-82
2022/08/19 01:10:24;;;;;;;5.13;4.72;;;;;;;;;;5054780;28;20234;-82
2022/08/19 01:12:52;;;;;;;6.40;5.80;;;;;;;;;;5056263;28;20206;-82
2022/08/19 01:15:25;;;;;;;5.63;5.15;;;;;;;;;;5057023;28;20208;-82
2022/08/19 01:17:55;;;;;;;5.15;4.75;;;;;;;;;;5055641;28;20230;-81
2022/08/19 01:20:24;;;;;;;6.07;5.35;;;;;;;;;;5056936;28;20371;-81
2022/08/19 01:22:56;;;;;;;6.72;6.18;;;;;;;;;;5055810;28;20236;-81
2022/08/19 01:25:27;;;;;;;6.38;5.13;;;;;;;;;;5055428;28;20197;-81
2022/08/19 01:27:57;;;;;;;5.50;5.00;;;;;;;;;;5054287;28;20222;-81
2022/08/19 01:30:30;;;;;;;5.85;5.13;;;;;;;;;;5054810;28;20225;-81
2022/08/19 01:32:59;;;;;;;5.55;5.15;;;;;;;;;;5054704;28;20600;-81
2022/08/19 01:35:29;;;;;;;6.35;5.75;;;;;;;;;;5054610;28;20202;-82
2022/08/19 01:38:01;;;;;;;6.82;6.13;;;;;;;;;;5054277;28;20241;-82
2022/08/19 01:40:32;;;;;;;7.07;6.47;;;;;;;;;;5054281;28;20651;-81
2022/08/19 01:43:01;;;;;;;5.30;4.80;;;;;;;;;;5054583;28;20289;-82
2022/08/19 01:45:30;;;;;;;5.93;5.43;;;;;;;;;;5054752;28;20229;-82
2022/08/19 01:47:58;;;;;;;6.55;5.85;;;;;;;;;;5054074;28;20288;-82
2022/08/19 01:50:27;;;;;;;5.22;4.82;;;;;;;;;;5054433;28;20237;-82
2022/08/19 01:52:55;;;;;;;5.88;5.38;;;;;;;;;;5054405;28;20201;-81
2022/08/19 01:55:24;;;;;;;6.10;5.60;;;;;;;;;;5054205;28;20262;-82
2022/08/19 01:57:55;;;;;;;6.00;5.30;;;;;;;;;;5053533;28;20221;-81
2022/08/19 02:00:26;;;;;;;7.90;6.05;;;;;;;;;;5054027;28;20708;-82
2022/08/19 02:02:54;;;;;;;5.97;5.47;;;;;;;;;;5054659;28;20263;-82
2022/08/19 02:05:21;;;;;;;6.35;5.75;;;;;;;;;;5053876;28;20292;-82
2022/08/19 02:07:50;;;;;;;5.68;5.07;;;;;;;;;;5053551;28;20249;-81
2022/08/19 02:10:21;;;;;;;6.63;5.63;;;;;;;;;;5054170;28;20244;-82
2022/08/19 02:12:50;;;;;;;6.72;6.13;;;;;;;;;;5053961;28;20255;-82
2022/08/19 02:15:19;;;;;;;6.05;5.45;;;;;;;;;;5053935;28;20666;-82
2022/08/19 02:17:48;;;;;;;6.20;5.60;;;;;;;;;;5052992;28;20221;-82
2022/08/19 02:20:16;;;;;;;5.47;4.97;;;;;;;;;;5053763;28;20571;-81
2022/08/19 02:22:44;;;;;;;5.47;5.05;;;;;;;;;;5053257;28;20312;-81
2022/08/19 02:25:13;;;;;;;5.50;5.03;;;;;;;;;;5053562;28;20237;-82
2022/08/19 02:27:41;;;;;;;5.85;5.30;;;;;;;;;;5053720;28;20261;-81
2022/08/19 02:30:16;;;;;;;5.57;5.07;;;;;;;;;;5053345;28;20211;-81
2022/08/19 02:32:44;;;;;;;6.25;5.57;;;;;;;;;;5053362;28;20201;-81
2022/08/19 02:35:13;;;;;;;6.95;6.25;;;;;;;;;;5053154;28;20669;-81
2022/08/19 02:40:26;;;;;;;5.30;4.80;;;;;;;;;;5053112;28;20256;-82
2022/08/19 02:42:53;;;;;;;5.22;4.80;;;;;;;;;;5052940;28;20221;-81
2022/08/19 02:45:22;;;;;;;6.65;5.97;;;;;;;;;;5052988;28;20233;-81
2022/08/19 02:47:50;;;;;;;5.13;4.70;;;;;;;;;;5052588;28;20222;-81
2022/08/19 02:50:18;;;;;;;5.30;4.80;;;;;;;;;;5052544;28;20676;-81
2022/08/19 02:52:45;;;;;;;5.18;4.68;;;;;;;;;;5052428;28;20273;-82
2022/08/19 02:55:13;;;;;;;6.13;5.25;;;;;;;;;;5053006;28;20209;-81
2022/08/19 02:57:41;;;;;;;6.25;4.95;;;;;;;;;;5052753;28;20678;-81
2022/08/19 03:00:12;;;;;;;6.05;5.30;;;;;;;;;;5052828;28;20207;-82
2022/08/19 03:02:41;;;;;;;5.82;5.32;;;;;;;;;;5052615;28;20220;-81
2022/08/19 03:05:11;;;;;;;5.70;5.30;;;;;;;;;;5052530;28;20292;-80
2022/08/19 03:07:38;;;;;;;5.40;4.90;;;;;;;;;;5052146;28;20300;-81
2022/08/19 03:10:07;;;;;;;5.18;4.53;;;;;;;;;;5052617;28;20225;-81
2022/08/19 03:12:38;;;;;;;5.18;4.68;;;;;;;;;;5052739;28;20197;-81
2022/08/19 03:15:08;;;;;;;7.13;5.50;;;;;;;;;;5052435;28;20198;-82
2022/08/19 03:17:36;;;;;;;5.20;4.80;;;;;;;;;;5051889;28;20244;-82
2022/08/19 03:20:07;;;;;;;5.47;5.07;;;;;;;;;;5051999;28;20202;-82
2022/08/19 03:22:34;;;;;;;7.32;4.60;;;;;;;;;;5052231;28;20778;-81
2022/08/19 03:25:02;;;;;;;5.22;4.70;;;;;;;;;;5051558;28;20240;-81
2022/08/19 03:27:29;;;;;;;5.15;4.60;;;;;;;;;;5051693;28;20208;-80
2022/08/19 03:29:57;;;;;;;4.93;4.43;;;;;;;;;;5052121;28;20208;-81
2022/08/19 03:32:24;;;;;;;4.70;4.30;;;;;;;;;;5052227;28;20201;-81
2022/08/19 03:34:52;;;;;;;4.97;4.53;;;;;;;;;;5051850;28;20227;-81
2022/08/19 03:37:22;;;;;;;5.05;4.60;;;;;;;;;;5051375;28;20769;-81
2022/08/19 03:39:49;;;;;;;4.90;4.50;;;;;;;;;;5052276;28;20206;-81
2022/08/19 03:42:17;;;;;;;5.07;4.43;;;;;;;;;;5052001;28;20316;-81
2022/08/19 03:44:45;;;;;;;5.45;4.45;;;;;;;;;;5052157;28;20236;-81
2022/08/19 03:47:15;;;;;;;4.82;4.40;;;;;;;;;;5052066;28;20193;-81
2022/08/19 03:49:43;;;;;;;6.40;5.20;;;;;;;;;;5052222;28;20216;-81
2022/08/19 03:52:11;;;;;;;5.28;4.78;;;;;;;;;;5051800;28;20216;-82
2022/08/19 03:54:40;;;;;;;4.65;4.20;;;;;;;;;;5051614;28;20296;-82
2022/08/19 03:57:08;;;;;;;4.93;4.53;;;;;;;;;;5051863;28;20237;-81
2022/08/19 03:59:38;;;;;;;4.80;4.35;;;;;;;;;;5051749;28;20214;-81
2022/08/19 04:02:10;;;;;;;5.03;4.53;;;;;;;;;;5051992;28;20249;-81
2022/08/19 04:04:38;;;;;;;5.88;4.82;;;;;;;;;;5055037;28;20233;-81
2022/08/19 04:07:06;;;;;;;5.43;4.93;;;;;;;;;;5055961;28;20207;-81
2022/08/19 04:09:36;;;;;;;9.02;5.18;;;;;;;;;;5055724;28;20283;-82
2022/08/19 04:12:06;;;;;;;5.30;4.35;;;;;;;;;;5055694;28;20700;-81
2022/08/19 04:14:35;;;;;;;5.55;4.43;;;;;;;;;;5055889;28;20240;-81
2022/08/19 04:17:05;;;;;;;5.72;4.70;;;;;;;;;;5055110;28;20237;-81
2022/08/19 04:19:33;;;;;;;4.38;3.97;;;;;;;;;;5055681;28;20226;-82
2022/08/19 04:22:01;;;;;;;4.35;3.95;;;;;;;;;;5055138;28;20320;-82
2022/08/19 04:24:29;;;;;;;6.78;4.65;;;;;;;;;;5055564;28;20272;-82
2022/08/19 04:26:56;;;;;;;5.53;4.03;;;;;;;;;;5055194;28;20236;-81
2022/08/19 04:29:26;;;;;;;4.50;3.95;;;;;;;;;;5055256;28;20224;-82
2022/08/19 04:31:55;;;;;;;4.15;3.75;;;;;;;;;;5055687;28;20292;-82
2022/08/19 04:34:26;;;;;;;4.15;3.75;;;;;;;;;;5055564;28;20587;-81
2022/08/19 04:36:55;;;;;;;3.65;3.35;;;;;;;;;;5055182;28;20233;-81
2022/08/19 04:45:00;;;;;;;3.70;3.40;;;;;;;;;;5055240;28;20220;-81
2022/08/19 04:47:28;;;;;;;3.83;3.47;;;;;;;;;;5055101;28;20205;-81
2022/08/19 04:49:55;;;;;;;3.80;3.50;;;;;;;;;;5035142;28;20293;-82
2022/08/19 04:52:23;;;;;;;5.03;3.42;;;;;;;;;;5035377;28;20194;-81
2022/08/19 04:54:51;;;;;;;3.80;3.50;;;;;;;;;;5035199;28;20664;-81
2022/08/19 04:57:18;;;;;;;3.45;3.15;;;;;;;;;;5034938;28;20234;-82
2022/08/19 04:59:46;;;;;;;4.03;3.63;;;;;;;;;;5035086;28;20305;-81
2022/08/19 05:02:14;;;;;;;3.35;3.00;;;;;;;;;;5034426;28;20289;-81
2022/08/19 05:04:42;;;;;;;3.25;3.00;;;;;;;;;;5035160;28;20698;-82
2022/08/19 05:07:10;;;;;;;4.28;3.10;;;;;;;;;;5034848;28;20206;-81
2022/08/19 05:09:37;;;;;;;5.47;3.30;;;;;;;;;;5034957;28;20230;-81
2022/08/19 05:12:06;;;;;;;3.75;3.25;;;;;;;;;;5034691;28;20234;-81
2022/08/19 05:14:34;;;;;;;3.25;2.95;;;;;;;;;;5034066;28;20328;-81
2022/08/19 05:17:02;;;;;;;2.85;2.58;;;;;;;;;;5034228;28;20233;-80
2022/08/19 05:22:35;;;;;;;3.03;2.83;;;;;;;;;;5055028;28;20209;-81
2022/08/19 05:25:07;;;;;;;4.10;3.15;;;;;;;;;;5054687;28;20205;-81
2022/08/19 05:27:35;;;;;;;3.35;3.05;;;;;;;;;;5055390;28;20240;-79
2022/08/19 05:30:03;;;;;;;3.42;2.80;;;;;;;;;;5049652;28;20329;-79
2022/08/19 05:32:31;;;;;;;4.75;3.45;;;;;;;;;;5054425;28;20198;-80
2022/08/19 05:34:59;;;;;;;4.10;3.38;;;;;;;;;;5054455;28;20277;-79
2022/08/19 05:37:27;;;;;;;4.78;4.10;;;;;;;;;;5034091;28;20234;-79
2022/08/19 05:39:56;;;;;;;3.47;3.17;;;;;;;;;;5034652;28;20210;-79
2022/08/19 05:42:23;;;;;;;3.33;3.03;;;;;;;;;;5035164;28;20233;-80
2022/08/19 05:44:52;;;;;;;4.78;3.15;;;;;;;;;;5048126;28;20743;-81
2022/08/19 05:47:21;;;;;;;3.67;3.38;;;;;;;;;;5055205;28;20285;-81
2022/08/19 05:49:50;;;;;;;4.10;3.80;;;;;;;;;;5054824;28;20198;-81
2022/08/19 05:52:20;;;;;;;4.28;3.63;;;;;;;;;;5054510;28;20198;-80
2022/08/19 05:54:50;;;;;;;3.95;3.55;;;;;;;;;;5055037;28;20240;-80
2022/08/19 05:57:18;;;;;;;3.42;3.17;;;;;;;;;;5055148;28;20236;-80
2022/08/19 05:59:51;;;;;;;3.90;3.60;;;;;;;;;;5054408;28;20208;-80
2022/08/19 06:02:18;;;;;;;3.45;3.15;;;;;;;;;;5054782;28;20572;-80
2022/08/19 06:04:46;;;;;;;3.13;2.92;;;;;;;;;;5054335;28;20312;-80
2022/08/19 06:07:15;;;;;;;3.80;3.25;;;;;;;;;;5054030;28;20292;-80
2022/08/19 06:09:43;;;;;;;4.38;3.97;;;;;;;;;;5054401;28;20654;-80
2022/08/19 06:12:11;;;;;;;3.22;3.03;;;;;;;;;;5054588;28;20237;-80
2022/08/19 06:14:40;;;;;;;4.15;3.75;;;;;;;;;;5054590;28;20237;-80
2022/08/19 06:17:07;;;;;;;4.38;3.65;;;;;;;;;;5059717;28;20665;-80
2022/08/19 06:19:36;;;;;;;3.92;3.60;;;;;;;;;;5056506;28;20713;-80
2022/08/19 06:22:06;;;;;;;4.22;3.30;;;;;;;;;;5054351;28;20217;-80
2022/08/19 06:24:34;;;;;;;3.45;3.15;;;;;;;;;;5060448;28;20221;-80
2022/08/19 06:27:05;;;;;;;3.90;3.60;;;;;;;;;;5073269;28;20295;-81
2022/08/19 06:29:33;;;;;;;5.55;3.47;;;;;;;;;;5073503;28;20316;-80
2022/08/19 06:32:02;;;;;;;6.53;4.35;;;;;;;;;;5054505;28;20213;-80
2022/08/19 06:34:33;;;;;;;4.70;4.30;;;;;;;;;;5051985;28;20197;-80
2022/08/19 06:37:02;;;;;;;3.40;3.10;;;;;;;;;;5053420;28;20983;-80
2022/08/19 06:39:33;;;;;;;3.75;3.42;;;;;;;;;;5052879;28;20221;-81
2022/08/19 06:42:06;;;;;;;4.80;3.35;;;;;;;;;;5052844;28;20204;-80
2022/08/19 06:44:36;;;;;;;4.05;3.55;;;;;;;;;;5052903;28;20230;-80
2022/08/19 06:47:05;;;;;;;3.40;3.05;;;;;;;;;;5052584;28;20241;-81
2022/08/19 06:49:34;;;;;;;5.05;3.50;;;;;;;;;;5061340;23;20249;-80
2022/08/19 06:52:02;;;;;;;3.80;3.38;;;;;;;;;;5055891;28;20250;-81
2022/08/19 06:54:30;;;;;;;4.00;3.60;;;;;;;;;;5056372;28;20197;-81
2022/08/19 06:57:00;;;;;;;3.78;2.88;;;;;;;;;;5055808;28;20197;-80
2022/08/19 06:59:32;;;;;;;4.25;3.22;;;;;;;;;;5055415;28;20227;-81
2022/08/19 07:02:01;;;;;;;3.72;3.33;;;;;;;;;;5055591;28;20618;-80
2022/08/19 07:04:32;;;;;;;3.47;3.17;;;;;;;;;;5055544;28;20245;-81
2022/08/19 07:07:02;;;;;;;2.97;2.78;;;;;;;;;;5061278;28;20197;-80
2022/08/19 07:09:30;;;;;;;4.57;3.75;;;;;;;;;;5075311;28;20672;-81
2022/08/19 07:11:58;;;;;;;3.90;3.58;;;;;;;;;;5075821;28;20283;-79
2022/08/19 07:14:28;;;;;;;4.50;3.88;;;;;;;;;;5079485;28;20733;-81
2022/08/19 07:16:58;;;;;;;3.78;3.47;;;;;;;;;;5083863;28;20235;-81
2022/08/19 07:19:28;;;;;;;2.70;2.50;;;;;;;;;;5082283;28;20252;-80
2022/08/19 07:21:56;;;;;;;3.85;3.55;;;;;;;;;;5080441;28;20221;-81
2022/08/19 07:24:27;;;;;;;3.53;3.22;;;;;;;;;;5072034;28;20262;-80
2022/08/19 07:27:00;;;;;;;3.92;3.63;;;;;;;;;;5084309;28;20196;-80
2022/08/19 07:29:32;;;;;;;4.28;3.88;;;;;;;;;;5083695;28;20197;-81
2022/08/19 07:32:01;;;;;;;4.97;4.57;;;;;;;;;;5064904;28;20226;-81
2022/08/19 07:34:30;;;;;;;4.55;4.15;;;;;;;;;;5063779;28;20197;-81
2022/08/19 07:36:59;;;;;;;3.90;3.60;;;;;;;;;;5062763;28;20810;-81
2022/08/19 07:39:30;;;;;;;4.88;4.38;;;;;;;;;;5071299;28;20202;-82
2022/08/19 07:42:01;;;;;;;7.25;4.82;;;;;;;;;;5063279;28;20285;-82
2022/08/19 07:44:30;;;;;;;5.15;4.45;;;;;;;;;;5064236;28;20440;-82
2022/08/19 07:46:59;;;;;;;4.05;3.75;;;;;;;;;;5063351;28;20193;-82
2022/08/19 07:49:27;;;;;;;4.72;4.32;;;;;;;;;;5064094;28;20626;-82
2022/08/19 07:51:59;;;;;;;4.75;4.35;;;;;;;;;;5063948;28;20252;-81
2022/08/19 07:54:28;;;;;;;5.63;4.30;;;;;;;;;;5064286;28;20202;-81
2022/08/19 07:56:56;;;;;;;4.30;3.97;;;;;;;;;;5063198;28;20253;-83
2022/08/19 07:59:24;;;;;;;4.63;4.22;;;;;;;;;;5064147;28;20210;-82
2022/08/19 08:01:53;;;;;;;4.22;3.92;;;;;;;;;;5062797;28;20271;-82
2022/08/19 08:09:54;;;;;;;3.85;3.30;;;;;;;;;;5064221;28;20185;-83
2022/08/19 08:12:28;;;;;;;5.90;4.38;;;;;;;;;;5063770;28;20290;-82
2022/08/19 08:15:01;;;;;;;4.47;4.18;;;;;;;;;;5064577;28;20201;-82
2022/08/19 08:17:31;;;;;;;5.13;4.78;;;;;;;;;;5063507;28;20204;-81
2022/08/19 08:19:59;;;;;;;4.38;3.47;;;;;;;;;;5064022;28;20241;-82
2022/08/19 08:25:17;;;;;;;4.05;3.75;;;;;;;;;;5063358;28;20226;-82
2022/08/19 08:27:46;;;;;;;4.47;4.18;;;;;;;;;;5063807;28;20196;-82
2022/08/19 08:30:18;;;;;;;12.07;4.88;;;;;;;;;;5064824;28;20209;-81
2022/08/19 08:32:47;;;;;;;3.78;3.50;;;;;;;;;;5063782;28;20221;-82
2022/08/19 08:35:19;;;;;;;4.18;3.60;;;;;;;;;;5064550;28;20823;-83
2022/08/19 08:37:49;;;;;;;4.50;4.20;;;;;;;;;;5064760;28;20193;-83
2022/08/19 08:40:23;;;;;;;3.90;3.60;;;;;;;;;;5065234;28;20197;-83
2022/08/19 08:42:58;;;;;;;4.15;3.85;;;;;;;;;;5064508;28;20221;-83
2022/08/19 08:45:26;;;;;;;4.75;4.32;;;;;;;;;;5064207;28;20201;-84
2022/08/19 08:47:58;;;;;;;3.70;3.40;;;;;;;;;;5063737;28;20202;-81
2022/08/19 08:50:35;;;;;;;5.15;4.65;;;;;;;;;;5065197;28;20196;-81
2022/08/19 08:53:04;;;;;;;3.55;3.25;;;;;;;;;;5067333;28;20271;-82
2022/08/19 08:55:32;;;;;;;3.95;3.65;;;;;;;;;;5068115;28;20207;-81
2022/08/19 08:58:04;;;;;;;4.45;4.13;;;;;;;;;;5067605;28;20225;-80
2022/08/19 09:00:36;;;;;;;4.70;3.80;;;;;;;;;;5060786;28;20285;-82
2022/08/19 09:03:07;;;;;;;4.38;4.05;;;;;;;;;;5046536;28;20227;-82
2022/08/19 09:05:42;;;;;;;4.00;3.70;;;;;;;;;;5047291;28;20222;-82
2022/08/19 09:08:16;;;;;;;4.43;3.28;;;;;;;;;;5046709;28;20205;-83
2022/08/19 09:10:48;;;;;;;3.13;2.92;;;;;;;;;;5047788;28;20202;-83
2022/08/19 09:13:27;;;;;;;2.90;2.70;;;;;;;;;;5047483;28;20213;-81
2022/08/19 09:16:01;;;;;;;2.88;2.67;;;;;;;;;;5048201;28;20198;-82
2022/08/19 09:18:41;;;;;;;3.30;3.00;;;;;;;;;;5055731;28;20198;-82
2022/08/19 09:21:09;;;;;;;5.30;3.10;;;;;;;;;;5067374;28;20289;-81
2022/08/19 09:23:37;;;;;;;3.10;2.90;;;;;;;;;;5067363;28;20213;-81
2022/08/19 09:26:13;;;;;;;3.55;3.35;;;;;;;;;;5066901;28;20582;-80
2022/08/19 09:28:43;;;;;;;3.50;3.30;;;;;;;;;;5067264;28;20198;-81
2022/08/19 09:31:11;;;;;;;3.25;2.97;;;;;;;;;;5070043;28;20217;-81
2022/08/19 09:33:43;;;;;;;3.78;3.47;;;;;;;;;;5087301;28;20205;-82
2022/08/19 09:36:14;;;;;;;4.22;3.28;;;;;;;;;;5087395;28;20204;-81
2022/08/19 09:38:42;;;;;;;3.92;3.63;;;;;;;;;;5087158;28;20291;-82
2022/08/19 09:41:13;;;;;;;4.90;3.85;;;;;;;;;;5087523;28;20228;-81
2022/08/19 09:43:42;;;;;;;3.45;3.15;;;;;;;;;;5086693;28;20693;-81
2022/08/19 09:46:10;;;;;;;2.97;2.78;;;;;;;;;;5086168;28;20228;-81
2022/08/19 09:48:41;;;;;;;3.13;2.92;;;;;;;;;;5077008;28;20221;-81
2022/08/19 09:51:11;;;;;;;3.42;3.22;;;;;;;;;;5066695;28;20232;-82
2022/08/19 09:53:40;;;;;;;3.92;3.17;;;;;;;;;;5066812;28;20194;-81
2022/08/19 09:56:08;;;;;;;3.88;3.10;;;;;;;;;;5067070;28;20224;-82
2022/08/19 09:58:35;;;;;;;2.90;2.70;;;;;;;;;;5065028;28;20205;-82
2022/08/19 10:01:05;;;;;;;3.25;3.05;;;;;;;;;;5065997;28;20683;-83
2022/08/19 10:03:35;;;;;;;3.15;2.88;;;;;;;;;;5065970;28;20288;-81
2022/08/19 10:06:06;;;;;;;2.78;2.58;;;;;;;;;;5066502;28;20264;-81
2022/08/19 10:08:37;;;;;;;2.50;2.30;;;;;;;;;;5066246;28;20261;-82
2022/08/19 10:11:06;;;;;;;3.72;2.70;;;;;;;;;;5066078;28;20217;-82
2022/08/19 10:13:34;;;;;;;2.58;2.42;;;;;;;;;;5065815;28;20580;-81
2022/08/19 10:16:07;;;;;;;2.75;2.55;;;;;;;;;;5065728;28;20198;-81
2022/08/19 10:18:35;;;;;;;3.25;2.85;;;;;;;;;;5065996;28;20273;-81
2022/08/19 10:21:10;;;;;;;3.75;3.13;;;;;;;;;;5066190;28;20198;-82
2022/08/19 10:23:39;;;;;;;3.33;2.90;;;;;;;;;;5066289;28;20245;-81
2022/08/19 10:26:08;;;;;;;2.35;2.25;;;;;;;;;;5064561;28;20225;-81
2022/08/19 10:28:37;;;;;;;2.63;2.42;;;;;;;;;;5067011;28;20208;-82
2022/08/19 10:31:09;;;;;;;2.92;2.72;;;;;;;;;;5055509;28;20210;-81
2022/08/19 10:33:38;;;;;;;3.50;2.80;;;;;;;;;;5046497;28;20229;-81
2022/08/19 10:36:10;;;;;;;2.33;2.13;;;;;;;;;;5046845;28;20202;-81
2022/08/19 10:38:38;;;;;;;4.20;2.40;;;;;;;;;;5045931;28;20209;-81
2022/08/19 10:41:11;;;;;;;2.53;2.15;;;;;;;;;;5045302;28;20210;-82
2022/08/19 10:43:39;;;;;;;2.50;2.40;;;;;;;;;;5046440;28;20194;-80
2022/08/19 10:46:08;;;;;;;3.22;3.03;;;;;;;;;;5045578;28;20217;-81
2022/08/19 10:48:36;;;;;;;2.72;2.53;;;;;;;;;;5053975;28;20217;-81
2022/08/19 10:53:51;;;;;;;3.05;2.70;;;;;;;;;;5065426;28;20244;-81
2022/08/19 10:59:05;;;;;;;2.88;2.63;;;;;;;;;;5066170;28;20645;-82
2022/08/19 11:01:33;;;;;;;2.22;2.10;;;;;;;;;;5065711;28;20249;-81
2022/08/19 11:04:01;;;;;;;2.17;2.08;;;;;;;;;;5065053;28;20193;-81
2022/08/19 11:06:29;;;;;;;2.70;2.50;;;;;;;;;;5064703;28;20232;-81
2022/08/19 11:08:59;;;;;;;2.95;2.65;;;;;;;;;;5064286;28;20227;-81
2022/08/19 11:11:28;;;;;;;2.60;2.40;;;;;;;;;;5064302;28;20231;-81
2022/08/19 11:13:56;;;;;;;3.45;2.58;;;;;;;;;;5065121;28;20203;-81
2022/08/19 11:16:29;;;;;;;3.85;3.03;;;;;;;;;;5065500;28;20201;-80
2022/08/19 11:19:00;;;;;;;2.83;2.63;;;;;;;;;;5064659;28;20213;-82
2022/08/19 11:21:32;;;;;;;2.38;2.05;;;;;;;;;;5064688;28;20222;-82
2022/08/19 11:24:05;;;;;;;2.20;2.10;;;;;;;;;;5065261;28;20193;-82
2022/08/19 11:26:34;;;;;;;2.88;2.20;;;;;;;;;;5064726;28;20212;-81
2022/08/19 11:29:02;;;;;;;9.88;3.03;;;;;;;;;;5064899;28;20285;-82
2022/08/19 11:31:33;;;;;;;3.35;2.38;;;;;;;;;;5063830;28;20249;-80
2022/08/19 11:34:05;;;;;;;3.08;2.88;;;;;;;;;;5065723;28;20187;-82
2022/08/19 11:36:33;;;;;;;3.35;3.05;;;;;;;;;;5064484;28;20232;-80
2022/08/19 11:39:05;;;;;;;5.07;3.30;;;;;;;;;;5064045;28;20576;-81
2022/08/19 11:41:33;;;;;;;2.40;2.20;;;;;;;;;;5064722;28;20273;-81
2022/08/19 11:44:02;;;;;;;2.50;2.30;;;;;;;;;;5064530;28;20257;-81
2022/08/19 11:46:30;;;;;;;3.30;3.00;;;;;;;;;;5058054;28;20226;-81
2022/08/19 11:48:58;;;;;;;2.30;2.00;;;;;;;;;;5063730;28;20201;-81
2022/08/19 11:51:27;;;;;;;4.32;2.80;;;;;;;;;;5064474;28;20214;-80
2022/08/19 11:53:57;;;;;;;1.98;1.88;;;;;;;;;;5063529;28;20201;-81
2022/08/19 11:56:27;;;;;;;2.50;2.40;;;;;;;;;;5064544;28;20198;-81
2022/08/19 11:58:56;;;;;;;2.38;2.28;;;;;;;;;;5064515;28;20198;-82
2022/08/19 12:01:26;;;;;;;2.35;2.15;;;;;;;;;;5064452;28;20248;-83
2022/08/19 12:03:55;;;;;;;2.53;2.35;;;;;;;;;;5069408;28;20196;-81
2022/08/19 12:06:28;;;;;;;2.92;2.72;;;;;;;;;;5085305;28;20196;-81
2022/08/19 12:08:57;;;;;;;2.00;1.90;;;;;;;;;;5085538;28;20204;-80
2022/08/19 12:11:27;;;;;;;2.42;2.30;;;;;;;;;;5085762;28;20220;-81
2022/08/19 12:13:55;;;;;;;2.22;2.13;;;;;;;;;;5085920;28;20653;-81
2022/08/19 12:16:25;;;;;;;2.55;2.35;;;;;;;;;;5083839;28;20200;-81
2022/08/19 12:18:53;;;;;;;2.60;2.33;;;;;;;;;;5072040;28;20201;-82
2022/08/19 12:21:28;;;;;;;2.72;2.53;;;;;;;;;;5064861;28;20256;-81
2022/08/19 12:23:57;;;;;;;2.50;2.30;;;;;;;;;;5066767;28;20201;-80
2022/08/19 12:26:27;;;;;;;3.03;2.78;;;;;;;;;;5067138;28;20289;-82
2022/08/19 12:28:54;;;;;;;2.53;2.35;;;;;;;;;;5067519;28;20201;-81
2022/08/19 12:31:22;;;;;;;2.85;2.65;;;;;;;;;;5052811;28;20692;-82
2022/08/19 12:33:52;;;;;;;3.70;2.40;;;;;;;;;;5047274;28;20210;-80
2022/08/19 12:36:19;;;;;;;2.28;2.17;;;;;;;;;;5046818;28;20210;-81
2022/08/19 12:38:47;;;;;;;2.75;2.50;;;;;;;;;;5048094;28;20202;-81
2022/08/19 12:41:18;;;;;;;2.10;2.00;;;;;;;;;;5070893;28;20242;-81
2022/08/19 12:43:48;;;;;;;2.38;2.28;;;;;;;;;;5087150;28;20744;-82
2022/08/19 12:46:15;;;;;;;2.67;2.47;;;;;;;;;;5087866;28;20227;-81
2022/08/19 12:48:44;;;;;;;2.72;2.53;;;;;;;;;;5075762;28;20230;-82
2022/08/19 12:51:16;;;;;;;2.67;2.47;;;;;;;;;;5065837;28;20248;-80
2022/08/19 12:53:44;;;;;;;2.65;2.45;;;;;;;;;;5065860;28;20201;-80
2022/08/19 12:56:14;;;;;;;2.15;2.05;;;;;;;;;;5065020;28;20202;-80
2022/08/19 12:58:42;;;;;;;2.20;2.10;;;;;;;;;;5066389;28;20582;-80
2022/08/19 13:01:15;;;;;;;2.10;2.00;;;;;;;;;;5066012;28;20222;-81
2022/08/19 13:03:45;;;;;;;2.22;2.10;;;;;;;;;;5064942;28;20202;-82
2022/08/19 13:06:13;;;;;;;3.15;2.95;;;;;;;;;;5064481;28;20265;-81
2022/08/19 13:08:41;;;;;;;2.17;2.00;;;;;;;;;;5064469;28;20229;-81
2022/08/19 13:11:12;;;;;;;1.98;1.88;;;;;;;;;;5075885;23;20826;-83
2022/08/19 13:13:41;;;;;;;2.10;2.00;;;;;;;;;;5057140;28;20188;-83
2022/08/19 13:16:11;;;;;;;1.70;1.60;;;;;;;;;;5057510;28;20232;-81
2022/08/19 13:18:40;;;;;;;1.77;1.67;;;;;;;;;;5064183;28;20285;-82
2022/08/19 13:21:11;;;;;;;2.10;2.00;;;;;;;;;;5068674;28;20470;-82
2022/08/19 13:23:38;;;;;;;1.92;1.80;;;;;;;;;;5079432;28;20211;-83
2022/08/19 13:26:08;;;;;;;2.28;2.17;;;;;;;;;;5077508;28;20201;-83
2022/08/19 13:34:11;;;;;;;1.90;1.80;;;;;;;;;;5057648;28;20205;-82
2022/08/19 13:36:39;;;;;;;2.15;1.95;;;;;;;;;;5056464;28;20244;-82
2022/08/19 13:39:09;;;;;;;2.53;2.10;;;;;;;;;;5057879;28;20233;-82
2022/08/19 13:41:36;;;;;;;1.88;1.77;;;;;;;;;;5071980;28;20231;-83
2022/08/19 13:44:06;;;;;;;2.80;2.60;;;;;;;;;;5077951;28;20200;-82
2022/08/19 13:46:35;;;;;;;3.90;2.58;;;;;;;;;;5079567;28;20197;-82
2022/08/19 13:49:02;;;;;;;2.00;1.90;;;;;;;;;;5065292;28;20263;-82
2022/08/19 13:51:30;;;;;;;3.40;2.67;;;;;;;;;;5058025;28;20701;-80
2022/08/19 13:53:57;;;;;;;2.30;2.20;;;;;;;;;;5057278;28;20237;-82
2022/08/19 13:56:25;;;;;;;18.48;2.40;;;;;;;;;;5058145;28;20635;-84
2022/08/19 13:58:53;;;;;;;2.50;2.35;;;;;;;;;;5058783;28;20237;-81
2022/08/19 14:01:22;;;;;;;2.53;2.30;;;;;;;;;;5056957;28;20226;-83
2022/08/19 14:03:51;;;;;;;2.55;2.35;;;;;;;;;;5056731;28;20194;-83
2022/08/19 14:06:19;;;;;;;2.35;2.15;;;;;;;;;;5056107;28;20724;-83
2022/08/19 14:08:47;;;;;;;1.65;1.55;;;;;;;;;;5056549;28;20271;-81
2022/08/19 14:11:15;;;;;;;1.80;1.70;;;;;;;;;;5055613;28;20610;-81
2022/08/19 14:13:43;;;;;;;1.98;1.77;;;;;;;;;;5056989;28;20210;-83
2022/08/19 14:16:13;;;;;;;1.95;1.85;;;;;;;;;;5055338;28;20252;-83
2022/08/19 14:18:41;;;;;;;2.15;1.95;;;;;;;;;;5056319;28;20273;-84
2022/08/19 14:21:17;;;;;;;1.65;1.55;;;;;;;;;;5056553;28;20224;-83
2022/08/19 14:23:45;;;;;;;2.00;1.90;;;;;;;;;;5057030;28;20201;-83
2022/08/19 14:26:16;;;;;;;1.70;1.60;;;;;;;;;;5056404;28;20206;-81
2022/08/19 14:28:45;;;;;;;2.08;1.98;;;;;;;;;;5064956;28;20799;-82
2022/08/19 14:31:16;;;;;;;2.30;1.60;;;;;;;;;;5063847;28;20265;-82
2022/08/19 14:33:43;;;;;;;1.98;1.88;;;;;;;;;;5054913;28;20205;-82
2022/08/19 14:36:12;;;;;;;2.28;2.17;;;;;;;;;;5056004;28;20642;-82
2022/08/19 14:38:40;;;;;;;1.85;1.75;;;;;;;;;;5056689;28;20217;-83
2022/08/19 14:41:16;;;;;;;2.47;2.28;;;;;;;;;;5056320;28;20760;-82
2022/08/19 14:43:46;;;;;;;2.30;2.10;;;;;;;;;;5055862;28;20190;-84
2022/08/19 14:46:15;;;;;;;2.15;2.05;;;;;;;;;;5056328;28;20206;-83
2022/08/19 14:48:42;;;;;;;2.05;1.95;;;;;;;;;;5056303;28;20225;-83
2022/08/19 14:51:12;;;;;;;2.08;1.98;;;;;;;;;;5056701;28;20221;-82
2022/08/19 14:53:40;;;;;;;2.20;2.00;;;;;;;;;;5057236;28;20256;-83
2022/08/19 14:56:12;;;;;;;2.10;2.00;;;;;;;;;;5056174;28;20233;-80
2022/08/19 14:58:41;;;;;;;1.92;1.83;;;;;;;;;;5056438;28;20233;-83
2022/08/19 15:01:08;;;;;;;2.17;2.08;;;;;;;;;;5056173;28;20221;-82
2022/08/19 15:03:36;;;;;;;1.80;1.70;;;;;;;;;;5056006;28;20747;-82
2022/08/19 15:06:06;;;;;;;1.83;1.73;;;;;;;;;;5057369;28;20237;-83
2022/08/19 15:08:36;;;;;;;1.95;1.85;;;;;;;;;;5056672;28;20225;-83
2022/08/19 15:11:09;;;;;;;2.20;2.10;;;;;;;;;;5056373;28;20249;-83
2022/08/19 15:13:36;;;;;;;1.65;1.55;;;;;;;;;;5056303;28;20197;-81
2022/08/19 15:16:05;;;;;;;1.40;1.30;;;;;;;;;;5055498;28;20239;-81
2022/08/19 15:18:32;;;;;;;2.08;1.92;;;;;;;;;;5055309;28;20209;-81
2022/08/19 15:21:00;;;;;;;1.85;1.75;;;;;;;;;;5055346;28;20226;-80
2022/08/19 15:23:28;;;;;;;1.85;1.75;;;;;;;;;;5057027;28;20296;-80
2022/08/19 15:25:57;;;;;;;1.40;1.30;;;;;;;;;;5055265;28;20240;-81